Pagina principale
METAR-TAF:

METAR-TAF

Aeroporti :

Seghedino, Ungheria

latitudine: 46-15N, longitudine: 020-06E, altezza: 82 m

Osservazione

Il bollettino è stato emesso 53 minuti fa, alle 17:45 UTC
Vento 7 kt da nord/nord-ovest
Temperature 20°C
Umidità 73%
Pressione 1003 hPa
Visibilità 10 km o più
Poco nuvoloso ad un'altezza di 5000 ft, Cumulonembo.
Nuvoloso ad un'altezza di 8300 ft

METAR: LHUD 191745Z 34007KT 9999 FEW050CB BKN083 20/15 Q1003

Ora: 20:38 (18:38 UTC)


TAF: mancante

Osservazioni e previsioni meteorologiche di più di 4000 aeroporti (messaggi METAR e TAF).

Le stazioni disponibili sono rappresentate dai dischi gialli e rossi sulla carta.

Puntare il mouse per vedere il nome della stazione.

Clicca sopra per visualizzare le osservazioni e previsioni meteorologiche.

Per cambiare la mappa : fare clic sui pulsanti verdi con una croce nera per ingrandire, il pulsante verde con un trattino per diminuire, o sulla freccia verde per le mappe adiacenti.


METAR-TAF: